Airfield :
LOGIN :

Register | Disclaimer

   EN    FR    IT 

 










Legend :    VFR   Marginal VFR   IFR   Intensive IFR   Very Intensive IFR
Visi :
Ceiling :
>= 8 km
>= 3000ft
5 to 8 km
1000 to 3000 ft
1500m to 5 km
500 to 1000 ft
800 to 1500m
200 to 500 ft
< 800m
< 200 ft
Symbols :   Thunderstorms  Fog  Heavy snow  Heavy precipitations  Wind > 20 kt
SIGMETs :     Misc.  Thunderstorms  Icing  Turbulence  Mountain Waves  Volcanic Ashes






- Airport Elevation : 218 ft
- IATA code : LBG


LFPB - Paris / Le Bourget

CURRENT METAR :
  • 271530Z AUTO 23008KT 190V270 9999 FEW046 OVC096 16/10 Q1018 TEMPO 4000 SHRA BKN030CB

EXPIRED METARs :
  • 271500Z AUTO 25007KT 200V280 CAVOK 16/10 Q1018 TEMPO 4000 SHRA BKN030CB
  • 271430Z AUTO 21003KT 170V240 CAVOK 15/11 Q1018 TEMPO 4000 SHRA BKN030CB
  • 271400Z AUTO VRB02KT 9999 ///CB 13/11 Q1018 TEMPO 4000 SHRA
  • 271330Z AUTO 25011KT 6000 2600 RA FEW037/// BKN047/// BKN054/// //////CB 13/10 Q1019 TEMPO 4000 SHRA
  • 271300Z AUTO 21007KT 170V250 9999 //////CB 18/07 Q1018 TEMPO 4000 SHRA
  • 271230Z AUTO 20005KT 170V230 9999 FEW049/// SCT068/// BKN078/// ///TCU 16/10 Q1018 TEMPO 4000 SHRA BKN030CB
  • 271200Z AUTO 19007KT 150V210 9999 ///CB 15/10 Q1018 TEMPO 4000 SHRA BECMG 27010KT
  • 271130Z AUTO 22013KT 9999 -RA FEW043/// BKN054/// BKN066/// //////TCU 15/10 Q1018 TEMPO 4000 SHRA
  • 271100Z AUTO VRB04KT 9999 FEW043/// BKN082/// //////TCU 18/08 Q1018 TEMPO 3000 SHRA

TAF AMD TAF LFPB
Valid from the 27 at 12:00 until the 28 at 12:00 UTC


271209Z 2712/2812 27010KT 9999 SCT030 BKN050
TEMPO 2712/2718 4000 SHRA BKN030CB
BECMG 2800/2802 19005KT
TEMPO 2810/2812 BKN012
ATIS : +33 1 48 62 43 92



MET'MAP, your aeronautical weather chart ! - Copyright ORBIFLY December 2007 - Disclaimer

ORBIFLY MET'MAP TEAM :

Programming & Development : Alexandra Zaïnal
Original concept : Baudouin d'Aumeries
Technical & hardware support : Manuel Goepfert
Assistance : Marc-Olivier Méhu




SOURCES & CREDITS :

   NOAA